Terminal Aerodrome Forecast
Issued by NWS

Home | Current Version | Previous Version | Text Only | Print | Product List | Glossary On
Versions: 1 2 3 4 5 6 7 8 9 10 11 12 13 14 15 16 17 18 19 20 21 22 23 24 25 26
000
FTUS44 KLZK 060300 AAB
TAFADF
TAF AMD
KADF 060312Z 0603/0624 21009KT P6SM SCT010 BKN050
     FM061000 VRB03KT P6SM BKN015
      TEMPO 0610/0614 3SM BR BKN008
     FM061600 20008G15KT P6SM VCTS SCT030CB BKN050=

USA.gov is the U.S. government's official web portal to all federal, state and local government web resources and services.